createdAt,value
2019-04-06T00:01:25.022Z,8.70
2019-04-06T00:03:53.465Z,8.80
2019-04-06T00:06:22.369Z,8.90
2019-04-06T00:08:50.968Z,8.70
2019-04-06T00:11:19.329Z,8.80
2019-04-06T00:13:47.580Z,9.00
2019-04-06T00:16:15.730Z,9.10
2019-04-06T00:18:43.682Z,8.90
2019-04-06T00:21:12.098Z,8.90
2019-04-06T00:23:40.328Z,9.00
2019-04-06T00:26:08.901Z,8.80
2019-04-06T00:28:36.832Z,8.90
2019-04-06T00:31:42.910Z,8.80
2019-04-06T00:34:10.063Z,8.90
2019-04-06T00:36:38.009Z,9.00
2019-04-06T00:39:05.498Z,9.00
2019-04-06T00:41:32.911Z,8.90
2019-04-06T00:44:00.700Z,8.80
2019-04-06T00:46:27.954Z,8.70
2019-04-06T00:48:58.231Z,8.80
2019-04-06T00:51:25.853Z,8.80
2019-04-06T00:53:53.263Z,8.90
2019-04-06T00:56:20.929Z,8.90
2019-04-06T00:58:48.222Z,9.00
2019-04-06T01:01:16.057Z,8.90
2019-04-06T01:03:43.218Z,9.10
2019-04-06T01:06:10.595Z,8.90
2019-04-06T01:08:38.126Z,8.90
2019-04-06T01:11:05.141Z,9.00
2019-04-06T01:13:33.165Z,9.00
2019-04-06T01:16:00.529Z,8.80
2019-04-06T01:18:28.191Z,8.80
2019-04-06T01:20:55.735Z,8.80
2019-04-06T01:23:22.998Z,8.90
2019-04-06T01:25:51.152Z,8.90
2019-04-06T01:28:19.844Z,8.80
2019-04-06T01:30:47.433Z,8.60
2019-04-06T01:33:16.287Z,8.60
2019-04-06T01:35:44.422Z,8.70
2019-04-06T01:38:12.421Z,8.90
2019-04-06T01:40:40.553Z,8.90
2019-04-06T01:43:08.573Z,9.00
2019-04-06T01:45:36.502Z,9.10
2019-04-06T01:48:04.534Z,9.10
2019-04-06T01:50:32.449Z,9.00
2019-04-06T01:53:00.476Z,9.10
2019-04-06T01:55:28.398Z,9.00
2019-04-06T01:57:56.381Z,9.00
2019-04-06T02:00:24.762Z,9.00
2019-04-06T02:02:52.883Z,8.90
2019-04-06T02:05:22.781Z,9.10
2019-04-06T02:07:50.896Z,9.20
2019-04-06T02:10:19.121Z,9.00
2019-04-06T02:12:47.250Z,9.00
2019-04-06T02:15:15.389Z,9.10
2019-04-06T02:17:43.281Z,9.20
2019-04-06T02:20:11.659Z,9.10
2019-04-06T02:22:40.212Z,9.10
2019-04-06T02:25:08.467Z,9.20
2019-04-06T02:27:36.730Z,9.20
2019-04-06T02:30:27.382Z,9.10
2019-04-06T02:33:01.394Z,9.20
2019-04-06T02:35:52.070Z,9.20
2019-04-06T02:38:26.025Z,9.30
2019-04-06T02:41:00.078Z,9.30
2019-04-06T02:43:30.471Z,9.20
2019-04-06T02:45:58.485Z,9.10
2019-04-06T02:48:26.515Z,9.20
2019-04-06T02:50:54.521Z,9.30
2019-04-06T02:53:22.429Z,9.30
2019-04-06T02:55:50.506Z,9.10
2019-04-06T02:58:18.629Z,9.10
2019-04-06T03:00:46.781Z,9.10
2019-04-06T03:03:16.147Z,9.10
2019-04-06T03:05:45.357Z,9.10
2019-04-06T03:08:13.971Z,9.10
2019-04-06T03:10:42.606Z,9.10
2019-04-06T03:13:11.681Z,9.20
2019-04-06T03:15:40.541Z,9.20
2019-04-06T03:18:09.077Z,8.90
2019-04-06T03:20:37.833Z,8.80
2019-04-06T03:23:06.210Z,8.90
2019-04-06T03:25:34.515Z,8.80
2019-04-06T03:28:03.055Z,8.80
2019-04-06T03:30:31.301Z,8.70
2019-04-06T03:32:59.450Z,8.70
2019-04-06T03:35:27.551Z,8.90
2019-04-06T03:37:55.712Z,8.80
2019-04-06T03:40:23.846Z,8.60
2019-04-06T03:42:52.063Z,8.60
2019-04-06T03:45:20.270Z,8.70
2019-04-06T03:47:48.364Z,8.80
2019-04-06T03:50:16.326Z,8.70
2019-04-06T03:52:45.171Z,8.90
2019-04-06T03:55:13.257Z,8.80
2019-04-06T03:57:41.985Z,8.80
2019-04-06T04:00:10.795Z,9.00
2019-04-06T04:02:39.734Z,9.00
2019-04-06T04:05:08.574Z,9.00
2019-04-06T04:07:37.963Z,9.00
2019-04-06T04:10:06.598Z,8.90
2019-04-06T04:12:35.076Z,9.00
2019-04-06T04:15:04.034Z,9.10
2019-04-06T04:17:32.243Z,9.30
2019-04-06T04:20:00.922Z,9.30
2019-04-06T04:22:29.214Z,9.20
2019-04-06T04:24:57.734Z,9.20
2019-04-06T04:27:29.635Z,9.00
2019-04-06T04:29:56.237Z,9.00
2019-04-06T04:32:24.704Z,9.00
2019-04-06T04:34:52.775Z,9.20
2019-04-06T04:37:20.937Z,9.00
2019-04-06T04:39:48.954Z,9.20
2019-04-06T04:42:17.260Z,9.10
2019-04-06T04:44:45.948Z,9.10
2019-04-06T04:47:14.115Z,9.10
2019-04-06T04:49:42.395Z,9.10
2019-04-06T04:52:10.534Z,9.00
2019-04-06T04:54:39.181Z,9.10
2019-04-06T04:57:07.809Z,9.00
2019-04-06T04:59:36.414Z,8.90
2019-04-06T05:02:04.445Z,9.10
2019-04-06T05:04:33.441Z,9.10
2019-04-06T05:07:02.145Z,9.10
2019-04-06T05:09:30.565Z,9.10
2019-04-06T05:11:59.128Z,9.10
2019-04-06T05:15:04.756Z,9.10
2019-04-06T05:17:33.252Z,9.20
2019-04-06T05:20:01.642Z,9.40
2019-04-06T05:22:30.379Z,9.30
2019-04-06T05:24:58.966Z,9.10
2019-04-06T05:27:27.092Z,9.20
2019-04-06T05:29:55.883Z,9.10
2019-04-06T05:32:24.483Z,9.20
2019-04-06T05:34:52.925Z,9.30
2019-04-06T05:37:21.455Z,9.30
2019-04-06T05:39:49.967Z,9.20
2019-04-06T05:42:19.010Z,9.30
2019-04-06T05:44:47.243Z,9.30
2019-04-06T05:47:15.697Z,9.20
2019-04-06T05:49:44.155Z,9.30
2019-04-06T05:52:13.121Z,9.40
2019-04-06T05:54:41.537Z,9.40
2019-04-06T05:57:10.526Z,9.50
2019-04-06T05:59:40.955Z,9.40
2019-04-06T06:02:09.947Z,9.40
2019-04-06T06:04:40.607Z,9.40
2019-04-06T06:07:09.388Z,9.40
2019-04-06T06:09:37.547Z,9.70
2019-04-06T06:12:06.404Z,9.80
2019-04-06T06:14:35.127Z,9.60
2019-04-06T06:17:03.348Z,9.80
2019-04-06T06:19:31.929Z,9.70
2019-04-06T06:22:00.737Z,9.90
2019-04-06T06:24:28.909Z,9.90
2019-04-06T06:26:57.111Z,9.90
2019-04-06T06:29:25.417Z,10.00
2019-04-06T06:31:53.990Z,10.10
2019-04-06T06:34:22.146Z,10.30
2019-04-06T06:36:50.558Z,10.30
2019-04-06T06:39:18.811Z,10.30
2019-04-06T06:41:47.414Z,10.30
2019-04-06T06:44:15.937Z,10.20
2019-04-06T06:46:44.194Z,10.40
2019-04-06T06:49:12.358Z,10.50
2019-04-06T06:51:40.922Z,10.30
2019-04-06T06:54:08.889Z,10.30
2019-04-06T06:56:37.329Z,10.40
2019-04-06T06:59:05.934Z,10.40
2019-04-06T07:01:34.218Z,10.40
2019-04-06T07:04:02.523Z,10.40
2019-04-06T07:06:31.065Z,10.50
2019-04-06T07:08:59.564Z,10.40
2019-04-06T07:11:27.830Z,10.50
2019-04-06T07:13:57.465Z,10.50
2019-04-06T07:16:26.080Z,10.60
2019-04-06T07:18:54.094Z,10.50
2019-04-06T07:21:22.394Z,10.50
2019-04-06T07:23:51.130Z,10.60
2019-04-06T07:26:19.813Z,10.70
2019-04-06T07:28:47.981Z,10.70
2019-04-06T07:31:16.594Z,10.70
2019-04-06T07:33:45.081Z,10.80
2019-04-06T07:36:13.384Z,10.70
2019-04-06T07:38:41.525Z,10.80
2019-04-06T07:41:10.005Z,10.60
2019-04-06T07:43:38.390Z,10.50
2019-04-06T07:46:06.294Z,10.70
2019-04-06T07:48:34.416Z,10.70
2019-04-06T07:51:03.303Z,10.80
2019-04-06T07:53:31.633Z,10.80
2019-04-06T07:55:59.597Z,11.10
2019-04-06T07:58:30.768Z,11.40
2019-04-06T08:00:58.806Z,11.50
2019-04-06T08:03:27.119Z,11.60
2019-04-06T08:05:55.468Z,11.50
2019-04-06T08:08:23.762Z,11.90
2019-04-06T08:10:51.966Z,12.00
2019-04-06T08:13:19.901Z,12.20
2019-04-06T08:15:49.358Z,12.50
2019-04-06T08:18:17.284Z,12.70
2019-04-06T08:20:45.530Z,12.40
2019-04-06T08:23:13.590Z,12.60
2019-04-06T08:25:41.808Z,12.70
2019-04-06T08:28:11.629Z,12.40
2019-04-06T08:30:46.347Z,12.80
2019-04-06T08:33:10.090Z,13.20
2019-04-06T08:35:38.004Z,13.50
2019-04-06T08:38:06.035Z,13.60
2019-04-06T08:40:39.035Z,14.10
2019-04-06T08:43:07.484Z,14.50
2019-04-06T08:45:36.639Z,14.40
2019-04-06T08:48:04.799Z,15.00
2019-04-06T08:50:32.963Z,15.40
2019-04-06T08:53:05.035Z,15.20
2019-04-06T08:55:33.649Z,15.10
2019-04-06T08:58:01.625Z,15.40
2019-04-06T09:00:30.141Z,15.50
2019-04-06T09:02:58.453Z,15.30
2019-04-06T09:05:31.800Z,15.80
2019-04-06T09:08:00.446Z,16.20
2019-04-06T09:10:28.608Z,16.30
2019-04-06T09:12:56.506Z,16.20
2019-04-06T09:15:24.514Z,16.70
2019-04-06T09:17:52.878Z,17.50
2019-04-06T09:20:22.543Z,17.90
2019-04-06T09:22:50.542Z,18.10
2019-04-06T09:25:18.534Z,17.70
2019-04-06T09:27:46.662Z,17.40
2019-04-06T09:30:14.965Z,17.70
2019-04-06T09:32:42.862Z,17.60
2019-04-06T09:35:11.775Z,17.10
2019-04-06T09:37:40.271Z,16.40
2019-04-06T09:40:08.646Z,16.30
2019-04-06T09:42:36.793Z,16.10
2019-04-06T09:45:31.091Z,16.00
2019-04-06T09:48:14.595Z,15.90
2019-04-06T09:51:14.417Z,16.20
2019-04-06T09:54:06.232Z,15.80
2019-04-06T09:56:53.914Z,15.90
2019-04-06T09:59:48.459Z,16.20
2019-04-06T10:02:35.693Z,16.50
2019-04-06T10:05:16.681Z,16.60
2019-04-06T10:07:53.505Z,16.50
2019-04-06T10:10:32.094Z,17.10
2019-04-06T10:13:08.218Z,17.80
2019-04-06T10:16:02.078Z,18.00
2019-04-06T10:18:36.062Z,17.70
2019-04-06T10:21:22.853Z,17.40
2019-04-06T10:23:58.037Z,17.70
2019-04-06T10:26:37.135Z,18.00
2019-04-06T10:29:48.019Z,17.90
2019-04-06T10:32:20.385Z,18.10
2019-04-06T10:35:00.490Z,18.40
2019-04-06T10:37:56.358Z,18.00
2019-04-06T10:40:56.561Z,17.60
2019-04-06T10:43:50.804Z,17.50
2019-04-06T10:46:26.020Z,17.20
2019-04-06T10:49:15.689Z,16.80
2019-04-06T10:52:05.639Z,16.70
2019-04-06T10:55:03.416Z,17.00
2019-04-06T10:57:54.118Z,17.50
2019-04-06T11:00:40.009Z,18.00
2019-04-06T11:03:19.731Z,18.20
2019-04-06T11:06:01.787Z,18.40
2019-04-06T11:08:44.665Z,18.20
2019-04-06T11:11:29.926Z,17.80
2019-04-06T11:14:25.611Z,17.70
2019-04-06T11:17:15.117Z,17.30
2019-04-06T11:20:10.490Z,17.30
2019-04-06T11:23:04.452Z,17.20
2019-04-06T11:25:57.224Z,17.70
2019-04-06T11:28:32.857Z,17.80
2019-04-06T11:31:22.453Z,17.00
2019-04-06T11:34:10.417Z,17.10
2019-04-06T11:36:44.364Z,17.40
2019-04-06T11:39:43.768Z,17.60
2019-04-06T11:42:28.676Z,17.40
2019-04-06T11:45:05.925Z,17.10
2019-04-06T11:47:48.854Z,17.00
2019-04-06T11:50:22.892Z,16.80
2019-04-06T11:53:01.600Z,16.90
2019-04-06T11:55:39.424Z,16.90
2019-04-06T11:58:36.058Z,17.00
2019-04-06T12:01:32.447Z,17.10
2019-04-06T12:04:12.530Z,17.20
2019-04-06T12:07:00.528Z,17.50
2019-04-06T12:10:06.154Z,17.40
2019-04-06T12:13:00.036Z,17.50
2019-04-06T12:16:02.240Z,17.60
2019-04-06T12:18:48.148Z,17.50
2019-04-06T12:21:35.346Z,17.70
2019-04-06T12:24:14.969Z,17.60
2019-04-06T12:27:08.687Z,17.70
2019-04-06T12:30:04.677Z,18.00
2019-04-06T12:32:51.854Z,18.20
2019-04-06T12:35:42.850Z,17.90
2019-04-06T12:38:36.423Z,17.40
2019-04-06T12:41:22.680Z,17.30
2019-04-06T12:44:00.014Z,17.30
2019-04-06T12:46:43.144Z,17.20
2019-04-06T12:49:30.254Z,17.40
2019-04-06T12:52:15.828Z,17.40
2019-04-06T12:55:02.685Z,17.40
2019-04-06T12:57:52.273Z,17.60
2019-04-06T13:00:49.597Z,17.80
2019-04-06T13:03:29.324Z,17.80
2019-04-06T13:06:26.582Z,17.80
2019-04-06T13:09:24.061Z,17.80
2019-04-06T13:12:04.418Z,17.80
2019-04-06T13:14:43.217Z,17.90
2019-04-06T13:17:27.691Z,18.00
2019-04-06T13:20:15.169Z,17.80
2019-04-06T13:23:08.374Z,17.80
2019-04-06T13:25:59.130Z,18.30
2019-04-06T13:28:36.651Z,18.60
2019-04-06T13:31:18.169Z,19.00
2019-04-06T13:34:02.098Z,19.40
2019-04-06T13:36:55.704Z,19.70
2019-04-06T13:39:32.146Z,19.40
2019-04-06T13:42:23.177Z,19.00
2019-04-06T13:45:05.251Z,18.80
2019-04-06T13:47:44.591Z,18.70
2019-04-06T13:50:49.375Z,18.70
2019-04-06T13:53:45.271Z,18.70
2019-04-06T13:56:45.589Z,18.70
2019-04-06T13:59:46.855Z,18.80
2019-04-06T14:02:31.251Z,18.70
2019-04-06T14:05:14.102Z,18.50
2019-04-06T14:08:00.997Z,18.60
2019-04-06T14:10:37.863Z,18.80
2019-04-06T14:13:24.767Z,18.70
2019-04-06T14:16:07.813Z,18.60
2019-04-06T14:18:56.258Z,18.40
2019-04-06T14:21:41.097Z,18.20
2019-04-06T14:24:20.927Z,18.50
2019-04-06T14:27:09.245Z,18.80
2019-04-06T14:30:09.271Z,18.80
2019-04-06T14:32:52.261Z,18.40
2019-04-06T14:35:39.283Z,18.30
2019-04-06T14:38:27.085Z,18.30
2019-04-06T14:41:03.459Z,18.40
2019-04-06T14:43:53.147Z,18.30
2019-04-06T14:46:47.474Z,18.40
2019-04-06T14:49:40.996Z,18.40
2019-04-06T14:52:26.492Z,18.20
2019-04-06T14:55:15.885Z,18.10
2019-04-06T14:57:55.606Z,18.30
2019-04-06T15:00:41.434Z,18.20
2019-04-06T15:03:40.344Z,18.00
2019-04-06T15:06:21.197Z,17.90
2019-04-06T15:09:06.429Z,17.90
2019-04-06T15:11:42.858Z,17.70
2019-04-06T15:14:38.179Z,17.60
2019-04-06T15:17:37.980Z,17.80
2019-04-06T15:20:16.271Z,17.90
2019-04-06T15:23:21.130Z,18.10
2019-04-06T15:25:57.968Z,18.00
2019-04-06T15:28:51.833Z,17.80
2019-04-06T15:31:48.453Z,17.90
2019-04-06T15:34:28.771Z,17.90
2019-04-06T15:37:07.766Z,17.90
2019-04-06T15:39:52.874Z,18.00
2019-04-06T15:42:25.481Z,18.30
2019-04-06T15:45:15.750Z,18.30
2019-04-06T15:48:02.715Z,18.30
2019-04-06T15:50:50.493Z,18.30
2019-04-06T15:53:37.533Z,18.10
2019-04-06T15:56:11.393Z,18.00
2019-04-06T15:59:04.969Z,18.10
2019-04-06T16:02:00.150Z,18.00
2019-04-06T16:04:29.118Z,18.00
2019-04-06T16:07:06.185Z,17.90
2019-04-06T16:10:03.395Z,18.00
2019-04-06T16:12:47.676Z,18.00
2019-04-06T16:15:21.662Z,18.00
2019-04-06T16:18:09.864Z,18.00
2019-04-06T16:21:10.276Z,18.00
2019-04-06T16:24:03.070Z,18.00
2019-04-06T16:26:39.435Z,17.90
2019-04-06T16:29:26.349Z,18.10
2019-04-06T16:32:16.554Z,18.20
2019-04-06T16:34:57.869Z,18.30
2019-04-06T16:37:35.290Z,18.10
2019-04-06T16:40:27.161Z,18.20
2019-04-06T16:43:17.774Z,18.40
2019-04-06T16:46:08.753Z,18.20
2019-04-06T16:48:59.584Z,18.20
2019-04-06T16:51:43.104Z,18.30
2019-04-06T16:54:21.453Z,18.30
2019-04-06T16:57:15.383Z,18.30
2019-04-06T16:59:52.361Z,18.20
2019-04-06T17:02:34.414Z,18.10
2019-04-06T17:05:10.135Z,18.00
2019-04-06T17:08:09.811Z,18.00
2019-04-06T17:10:47.259Z,17.80
2019-04-06T17:13:40.829Z,17.70
2019-04-06T17:16:27.217Z,17.80
2019-04-06T17:19:03.218Z,17.90
2019-04-06T17:21:43.534Z,17.80
2019-04-06T17:24:28.295Z,17.70
2019-04-06T17:27:16.206Z,17.70
2019-04-06T17:30:10.010Z,17.60
2019-04-06T17:33:12.654Z,17.60
2019-04-06T17:35:47.354Z,17.50
2019-04-06T17:38:21.245Z,17.40
2019-04-06T17:40:58.252Z,17.20
2019-04-06T17:44:02.894Z,17.30
2019-04-06T17:46:44.826Z,17.10
2019-04-06T17:49:24.165Z,17.00
2019-04-06T17:51:59.675Z,16.80
2019-04-06T17:54:34.075Z,16.80
2019-04-06T17:57:17.891Z,16.70
2019-04-06T17:59:55.279Z,16.70
2019-04-06T18:02:48.737Z,16.60
2019-04-06T18:05:36.096Z,16.40
2019-04-06T18:08:32.248Z,16.30
2019-04-06T18:11:17.285Z,16.10
2019-04-06T18:13:50.067Z,16.00
2019-04-06T18:16:18.876Z,15.80
2019-04-06T18:18:47.394Z,15.70
2019-04-06T18:21:15.813Z,15.60
2019-04-06T18:23:43.930Z,15.40
2019-04-06T18:26:12.054Z,15.40
2019-04-06T18:28:39.975Z,15.30
2019-04-06T18:31:27.565Z,15.20
2019-04-06T18:33:54.780Z,15.10
2019-04-06T18:36:24.906Z,15.00
2019-04-06T18:38:59.685Z,14.90
2019-04-06T18:41:26.905Z,14.80
2019-04-06T18:43:53.839Z,14.70
2019-04-06T18:46:20.727Z,14.60
2019-04-06T18:48:47.636Z,14.50
2019-04-06T18:51:14.540Z,14.40
2019-04-06T18:53:41.593Z,14.30
2019-04-06T18:56:08.580Z,14.20
2019-04-06T18:58:35.525Z,14.20
2019-04-06T19:01:03.366Z,14.10
2019-04-06T19:03:30.422Z,14.00
2019-04-06T19:05:57.959Z,14.00
2019-04-06T19:08:25.005Z,14.00
2019-04-06T19:10:52.641Z,13.90
2019-04-06T19:13:21.572Z,13.80
2019-04-06T19:15:50.173Z,13.70
2019-04-06T19:18:19.113Z,13.70
2019-04-06T19:20:47.605Z,13.60
2019-04-06T19:23:15.525Z,13.60
2019-04-06T19:25:44.291Z,13.50
2019-04-06T19:28:12.564Z,13.50
2019-04-06T19:30:40.909Z,13.50
2019-04-06T19:33:09.269Z,13.50
2019-04-06T19:35:37.192Z,13.50
2019-04-06T19:38:05.357Z,13.70
2019-04-06T19:40:33.553Z,13.60
2019-04-06T19:43:01.543Z,13.50
2019-04-06T19:45:29.495Z,13.50
2019-04-06T19:47:57.413Z,13.60
2019-04-06T19:50:25.922Z,13.60
2019-04-06T19:52:54.165Z,13.60
2019-04-06T19:55:22.875Z,13.70
2019-04-06T19:57:50.941Z,13.60
2019-04-06T20:00:19.395Z,13.70
2019-04-06T20:02:47.605Z,13.70
2019-04-06T20:05:15.766Z,13.70
2019-04-06T20:07:43.689Z,13.60
2019-04-06T20:10:11.862Z,13.60
2019-04-06T20:12:40.263Z,13.50
2019-04-06T20:15:08.776Z,13.60
2019-04-06T20:17:37.408Z,13.50
2019-04-06T20:20:05.780Z,13.40
2019-04-06T20:22:34.130Z,13.40
2019-04-06T20:25:02.682Z,13.30
2019-04-06T20:27:30.882Z,13.20
2019-04-06T20:29:59.281Z,13.30
2019-04-06T20:32:31.303Z,13.20
2019-04-06T20:34:58.406Z,13.20
2019-04-06T20:37:26.369Z,13.20
2019-04-06T20:39:54.923Z,13.20
2019-04-06T20:42:23.602Z,13.20
2019-04-06T20:44:51.629Z,13.20
2019-04-06T20:47:19.970Z,13.20
2019-04-06T20:49:48.016Z,13.30
2019-04-06T20:52:16.144Z,13.20
2019-04-06T20:54:44.174Z,13.10
2019-04-06T20:57:12.170Z,13.20
2019-04-06T20:59:40.444Z,13.30
2019-04-06T21:02:09.310Z,13.20
2019-04-06T21:04:37.470Z,13.30
2019-04-06T21:07:05.541Z,13.30
2019-04-06T21:09:35.560Z,13.40
2019-04-06T21:12:03.579Z,13.40
2019-04-06T21:14:32.533Z,13.30
2019-04-06T21:17:01.361Z,13.20
2019-04-06T21:19:29.394Z,13.30
2019-04-06T21:21:58.804Z,13.20
2019-04-06T21:24:27.354Z,13.00
2019-04-06T21:26:55.418Z,13.00
2019-04-06T21:29:23.495Z,12.90
2019-04-06T21:31:51.892Z,12.80
2019-04-06T21:34:20.455Z,12.70
2019-04-06T21:36:48.410Z,12.70
2019-04-06T21:39:16.493Z,12.70
2019-04-06T21:41:44.955Z,12.60
2019-04-06T21:44:13.050Z,12.70
2019-04-06T21:46:41.380Z,12.60
2019-04-06T21:49:10.029Z,12.50
2019-04-06T21:51:38.240Z,12.40
2019-04-06T21:54:06.723Z,12.40
2019-04-06T21:56:35.709Z,12.40
2019-04-06T21:59:03.870Z,12.30
2019-04-06T22:01:32.522Z,12.30
2019-04-06T22:04:01.305Z,12.30
2019-04-06T22:06:29.452Z,12.40
2019-04-06T22:08:58.118Z,12.30
2019-04-06T22:11:26.578Z,12.10
2019-04-06T22:13:56.820Z,12.20
2019-04-06T22:16:25.637Z,12.20
2019-04-06T22:18:54.447Z,12.10
2019-04-06T22:21:22.845Z,12.10
2019-04-06T22:23:51.490Z,12.10
2019-04-06T22:26:19.879Z,12.00
2019-04-06T22:28:48.072Z,12.00
2019-04-06T22:31:16.475Z,12.00
2019-04-06T22:33:45.631Z,12.00
2019-04-06T22:36:14.150Z,12.10
2019-04-06T22:38:43.362Z,12.10
2019-04-06T22:41:10.762Z,12.00
2019-04-06T22:43:39.174Z,12.10
2019-04-06T22:46:07.909Z,12.10
2019-04-06T22:48:36.787Z,12.20
2019-04-06T22:51:05.638Z,12.20
2019-04-06T22:53:34.746Z,12.30
2019-04-06T22:56:03.233Z,12.40
2019-04-06T22:58:31.153Z,12.40
2019-04-06T23:01:10.714Z,12.40
2019-04-06T23:03:57.401Z,12.40
2019-04-06T23:06:35.417Z,12.50
2019-04-06T23:09:06.195Z,12.50
2019-04-06T23:11:34.453Z,12.50
2019-04-06T23:14:03.049Z,12.60
2019-04-06T23:16:31.617Z,12.70
2019-04-06T23:19:00.364Z,12.70
2019-04-06T23:21:28.635Z,12.80
2019-04-06T23:23:57.036Z,12.90
2019-04-06T23:26:25.327Z,12.80
2019-04-06T23:28:55.000Z,12.70
2019-04-06T23:31:23.822Z,12.70
2019-04-06T23:33:52.116Z,12.70
2019-04-06T23:36:20.818Z,12.70
2019-04-06T23:38:48.811Z,12.80
2019-04-06T23:41:18.423Z,12.90
2019-04-06T23:43:46.968Z,12.90
2019-04-06T23:46:15.228Z,12.80
2019-04-06T23:48:44.115Z,12.90
2019-04-06T23:51:13.182Z,12.90
2019-04-06T23:53:41.399Z,12.90
2019-04-06T23:56:10.136Z,13.00
2019-04-06T23:58:38.353Z,13.00
